createdAt,value
2018-08-31T00:02:13.343Z,100769.32
2018-08-31T00:04:50.452Z,100766.50
2018-08-31T00:09:39.823Z,100769.05
2018-08-31T00:12:46.527Z,100766.02
2018-08-31T00:15:15.128Z,100764.98
2018-08-31T00:17:44.401Z,100766.90
2018-08-31T00:20:14.164Z,100765.36
2018-08-31T00:22:42.720Z,100766.13
2018-08-31T00:26:24.659Z,100763.13
2018-08-31T00:29:41.879Z,100757.38
2018-08-31T00:33:22.324Z,100750.92
2018-08-31T00:36:12.271Z,100751.33
2018-08-31T00:39:07.759Z,100756.94
2018-08-31T00:41:56.364Z,100745.86
2018-08-31T00:44:36.384Z,100755.45
2018-08-31T00:47:04.951Z,100751.47
2018-08-31T00:49:33.415Z,100749.14
2018-08-31T00:52:01.895Z,100750.45
2018-08-31T00:54:30.363Z,100751.03
2018-08-31T00:56:58.880Z,100752.30
2018-08-31T00:59:27.635Z,100742.26
2018-08-31T01:01:56.099Z,100743.55
2018-08-31T01:04:24.543Z,100751.05
2018-08-31T01:06:53.473Z,100749.29
2018-08-31T01:09:21.930Z,100749.98
2018-08-31T01:11:50.586Z,100746.42
2018-08-31T01:14:19.152Z,100738.45
2018-08-31T01:16:47.651Z,100736.33
2018-08-31T01:19:16.171Z,100726.67
2018-08-31T01:21:44.790Z,100724.88
2018-08-31T01:24:13.319Z,100722.34
2018-08-31T01:26:41.835Z,100716.67
2018-08-31T01:29:10.479Z,100717.88
2018-08-31T01:31:38.950Z,100719.92
2018-08-31T01:34:07.403Z,100720.50
2018-08-31T01:36:36.014Z,100719.52
2018-08-31T01:39:05.611Z,100717.88
2018-08-31T01:41:34.129Z,100714.95
2018-08-31T01:44:02.768Z,100710.20
2018-08-31T01:46:31.215Z,100720.50
2018-08-31T01:48:59.683Z,100714.20
2018-08-31T01:51:28.379Z,100726.08
2018-08-31T01:53:56.951Z,100716.24
2018-08-31T01:56:25.419Z,100719.82
2018-08-31T01:58:54.148Z,100714.34
2018-08-31T02:01:22.584Z,100712.72
2018-08-31T02:03:51.099Z,100716.24
2018-08-31T02:06:19.601Z,100715.78
2018-08-31T02:08:53.427Z,100714.95
2018-08-31T02:11:21.905Z,100709.92
2018-08-31T02:13:50.527Z,100709.16
2018-08-31T02:16:19.081Z,100713.42
2018-08-31T02:18:47.932Z,100716.95
2018-08-31T02:21:16.379Z,100718.23
2018-08-31T02:23:45.003Z,100716.19
2018-08-31T02:26:13.467Z,100712.89
2018-08-31T02:28:41.960Z,100711.23
2018-08-31T02:31:10.455Z,100700.33
2018-08-31T02:33:39.052Z,100705.41
2018-08-31T02:36:07.654Z,100705.77
2018-08-31T02:38:36.265Z,100711.75
2018-08-31T02:41:05.149Z,100714.62
2018-08-31T02:43:33.676Z,100707.30
2018-08-31T02:46:02.227Z,100715.03
2018-08-31T02:48:30.979Z,100706.94
2018-08-31T02:50:59.432Z,100708.94
2018-08-31T02:53:27.931Z,100698.66
2018-08-31T02:55:56.674Z,100707.93
2018-08-31T02:58:25.210Z,100709.01
2018-08-31T03:00:53.739Z,100708.40
2018-08-31T03:03:22.204Z,100704.76
2018-08-31T03:05:50.724Z,100706.91
2018-08-31T03:08:19.271Z,100700.71
2018-08-31T03:10:47.819Z,100696.91
2018-08-31T03:13:16.281Z,100699.84
2018-08-31T03:15:44.790Z,100705.45
2018-08-31T03:18:13.274Z,100701.73
2018-08-31T03:20:41.691Z,100703.84
2018-08-31T03:23:10.271Z,100712.39
2018-08-31T03:25:39.112Z,100713.80
2018-08-31T03:28:07.552Z,100708.03
2018-08-31T03:30:36.152Z,100708.49
2018-08-31T03:33:04.659Z,100709.36
2018-08-31T03:35:33.174Z,100716.80
2018-08-31T03:38:01.643Z,100706.50
2018-08-31T03:40:30.332Z,100703.78
2018-08-31T03:42:58.783Z,100702.36
2018-08-31T03:45:27.652Z,100703.69
2018-08-31T03:47:56.326Z,100705.13
2018-08-31T03:50:24.816Z,100713.31
2018-08-31T03:52:53.419Z,100704.22
2018-08-31T03:55:22.039Z,100712.13
2018-08-31T03:57:50.610Z,100711.02
2018-08-31T04:00:19.079Z,100706.35
2018-08-31T04:02:47.847Z,100710.81
2018-08-31T04:05:16.395Z,100706.70
2018-08-31T04:07:44.920Z,100706.59
2018-08-31T04:10:13.576Z,100695.22
2018-08-31T04:12:42.107Z,100695.69
2018-08-31T04:15:11.032Z,100697.58
2018-08-31T04:17:39.688Z,100702.81
2018-08-31T04:20:09.019Z,100702.14
2018-08-31T04:22:37.494Z,100698.97
2018-08-31T04:25:06.075Z,100704.39
2018-08-31T04:27:34.551Z,100706.66
2018-08-31T04:30:03.106Z,100706.58
2018-08-31T04:32:31.568Z,100709.68
2018-08-31T04:35:00.165Z,100709.02
2018-08-31T04:37:28.671Z,100705.00
2018-08-31T04:39:57.357Z,100710.50
2018-08-31T04:42:25.827Z,100717.98
2018-08-31T04:44:54.345Z,100724.75
2018-08-31T04:47:23.259Z,100721.22
2018-08-31T04:49:51.755Z,100729.53
2018-08-31T04:52:20.215Z,100723.67
2018-08-31T04:54:48.942Z,100720.61
2018-08-31T04:57:17.339Z,100725.48
2018-08-31T04:59:45.787Z,100730.19
2018-08-31T05:02:14.338Z,100730.81
2018-08-31T05:04:42.810Z,100731.98
2018-08-31T05:07:11.303Z,100731.52
2018-08-31T05:09:40.052Z,100734.23
2018-08-31T05:12:08.532Z,100738.43
2018-08-31T05:14:37.071Z,100726.52
2018-08-31T05:17:05.628Z,100722.95
2018-08-31T05:19:34.091Z,100719.78
2018-08-31T05:22:02.597Z,100725.48
2018-08-31T05:24:31.332Z,100724.61
2018-08-31T05:26:59.866Z,100725.41
2018-08-31T05:29:28.353Z,100726.54
2018-08-31T05:31:57.011Z,100729.19
2018-08-31T05:34:25.587Z,100726.14
2018-08-31T05:36:54.167Z,100722.95
2018-08-31T05:39:22.639Z,100727.34
2018-08-31T05:41:51.159Z,100729.02
2018-08-31T05:44:19.655Z,100728.63
2018-08-31T05:46:48.270Z,100726.55
2018-08-31T05:49:16.706Z,100733.27
2018-08-31T05:51:45.171Z,100731.37
2018-08-31T05:54:13.758Z,100729.09
2018-08-31T05:56:42.215Z,100735.64
2018-08-31T05:59:10.655Z,100731.94
2018-08-31T06:01:39.288Z,100741.28
2018-08-31T06:04:08.301Z,100743.61
2018-08-31T06:06:36.767Z,100742.39
2018-08-31T06:09:08.178Z,100740.64
2018-08-31T06:11:36.649Z,100736.88
2018-08-31T06:14:05.172Z,100731.28
2018-08-31T06:16:33.784Z,100731.94
2018-08-31T06:19:02.667Z,100734.03
2018-08-31T06:21:31.223Z,100737.97
2018-08-31T06:23:59.987Z,100744.25
2018-08-31T06:26:28.532Z,100753.02
2018-08-31T06:28:57.048Z,100750.53
2018-08-31T06:31:25.674Z,100744.66
2018-08-31T06:33:54.136Z,100742.83
2018-08-31T06:36:22.556Z,100748.38
2018-08-31T06:38:51.265Z,100743.73
2018-08-31T06:41:19.714Z,100752.17
2018-08-31T06:43:48.119Z,100750.02
2018-08-31T06:46:16.690Z,100753.91
2018-08-31T06:48:45.186Z,100750.16
2018-08-31T06:51:13.800Z,100738.14
2018-08-31T06:53:42.526Z,100737.67
2018-08-31T06:56:11.076Z,100725.30
2018-08-31T06:58:39.519Z,100737.67
2018-08-31T07:01:08.112Z,100746.77
2018-08-31T07:03:36.557Z,100750.70
2018-08-31T07:06:05.007Z,100749.64
2018-08-31T07:08:33.601Z,100749.60
2018-08-31T07:11:02.038Z,100753.58
2018-08-31T07:13:30.508Z,100752.52
2018-08-31T07:15:59.017Z,100754.08
2018-08-31T07:18:27.528Z,100750.28
2018-08-31T07:20:56.114Z,100748.73
2018-08-31T07:23:24.771Z,100744.01
2018-08-31T07:25:53.231Z,100742.41
2018-08-31T07:28:21.767Z,100737.44
2018-08-31T07:30:50.496Z,100736.92
2018-08-31T07:33:18.926Z,100729.88
2018-08-31T07:35:47.527Z,100737.88
2018-08-31T07:38:16.084Z,100730.39
2018-08-31T07:40:44.556Z,100729.34
2018-08-31T07:43:13.008Z,100734.67
2018-08-31T07:45:41.612Z,100733.05
2018-08-31T07:48:10.214Z,100738.47
2018-08-31T07:50:38.663Z,100732.90
2018-08-31T07:53:07.135Z,100733.88
2018-08-31T07:55:35.599Z,100737.20
2018-08-31T07:58:04.195Z,100737.34
2018-08-31T08:00:32.941Z,100738.52
2018-08-31T08:03:01.399Z,100739.96
2018-08-31T08:05:29.852Z,100742.30
2018-08-31T08:07:58.491Z,100740.36
2018-08-31T08:10:26.971Z,100740.47
2018-08-31T08:12:55.496Z,100742.55
2018-08-31T08:15:24.067Z,100736.77
2018-08-31T08:17:52.571Z,100735.70
2018-08-31T08:20:21.109Z,100731.13
2018-08-31T08:22:49.752Z,100737.42
2018-08-31T08:25:18.311Z,100739.90
2018-08-31T08:27:47.122Z,100735.40
2018-08-31T08:30:15.990Z,100729.39
2018-08-31T08:32:44.704Z,100732.27
2018-08-31T08:35:13.179Z,100735.39
2018-08-31T08:37:42.135Z,100743.74
2018-08-31T08:40:10.684Z,100732.44
2018-08-31T08:42:39.358Z,100733.55
2018-08-31T08:45:08.083Z,100732.22
2018-08-31T08:47:36.581Z,100734.63
2018-08-31T08:50:05.595Z,100734.06
2018-08-31T08:52:34.135Z,100727.75
2018-08-31T08:55:02.585Z,100722.97
2018-08-31T08:57:31.132Z,100726.67
2018-08-31T08:59:59.912Z,100721.19
2018-08-31T09:50:57.003Z,100743.88
2018-08-31T09:53:25.466Z,100737.88
2018-08-31T09:55:53.950Z,100739.81
2018-08-31T09:58:22.639Z,100732.42
2018-08-31T10:00:55.079Z,100732.02
2018-08-31T10:03:25.014Z,100732.12
2018-08-31T10:05:54.503Z,100736.27
2018-08-31T10:08:24.718Z,100732.03
2018-08-31T10:10:53.315Z,100728.84
2018-08-31T10:13:22.007Z,100724.91
2018-08-31T10:15:50.787Z,100722.86
2018-08-31T10:18:19.285Z,100723.50
2018-08-31T10:20:47.855Z,100734.20
2018-08-31T10:23:16.477Z,100731.45
2018-08-31T10:25:45.051Z,100726.33
2018-08-31T10:28:13.597Z,100724.05
2018-08-31T10:30:42.303Z,100734.36
2018-08-31T10:33:11.189Z,100722.05
2018-08-31T10:35:39.731Z,100728.64
2018-08-31T10:38:08.258Z,100724.91
2018-08-31T10:40:36.788Z,100722.86
2018-08-31T10:43:05.532Z,100724.02
2018-08-31T10:45:34.254Z,100726.73
2018-08-31T10:48:02.977Z,100717.95
2018-08-31T10:50:31.532Z,100718.39
2018-08-31T10:53:00.244Z,100721.35
2018-08-31T10:55:28.808Z,100712.23
2018-08-31T10:57:57.375Z,100700.75
2018-08-31T11:00:26.035Z,100702.00
2018-08-31T11:02:54.678Z,100719.49
2018-08-31T11:05:23.139Z,100697.66
2018-08-31T11:07:51.655Z,100699.42
2018-08-31T11:10:20.152Z,100698.45
2018-08-31T11:12:48.785Z,100706.34
2018-08-31T11:15:17.562Z,100703.30
2018-08-31T11:17:46.019Z,100700.94
2018-08-31T11:20:14.460Z,100699.92
2018-08-31T11:22:42.954Z,100685.88
2018-08-31T11:25:11.535Z,100697.70
2018-08-31T11:27:40.168Z,100695.20
2018-08-31T11:30:10.007Z,100693.24
2018-08-31T11:32:39.379Z,100693.05
2018-08-31T11:35:07.971Z,100694.13
2018-08-31T11:37:36.438Z,100697.69
2018-08-31T11:40:04.939Z,100690.35
2018-08-31T11:42:33.407Z,100694.08
2018-08-31T11:45:02.088Z,100694.64
2018-08-31T11:47:30.471Z,100691.37
2018-08-31T11:49:58.895Z,100689.05
2018-08-31T11:52:27.460Z,100694.84
2018-08-31T11:54:55.919Z,100693.80
2018-08-31T11:57:24.394Z,100691.30
2018-08-31T11:59:53.055Z,100690.52
2018-08-31T12:02:21.747Z,100696.69
2018-08-31T12:04:50.247Z,100699.72
2018-08-31T12:07:18.850Z,100692.15
2018-08-31T12:09:47.387Z,100693.52
2018-08-31T12:12:15.854Z,100697.49
2018-08-31T12:14:44.443Z,100697.16
2018-08-31T12:17:12.958Z,100684.47
2018-08-31T12:19:41.375Z,100692.07
2018-08-31T12:22:09.911Z,100691.17
2018-08-31T12:24:38.325Z,100673.05
2018-08-31T12:27:06.811Z,100678.63
2018-08-31T12:29:35.590Z,100681.82
2018-08-31T12:32:04.163Z,100679.29
2018-08-31T12:34:32.575Z,100675.78
2018-08-31T12:37:01.180Z,100678.77
2018-08-31T12:39:29.603Z,100680.64
2018-08-31T12:41:58.139Z,100684.59
2018-08-31T12:44:26.639Z,100684.34
2018-08-31T12:46:55.204Z,100684.83
2018-08-31T12:49:23.687Z,100688.02
2018-08-31T12:51:52.199Z,100684.70
2018-08-31T12:54:20.690Z,100682.14
2018-08-31T12:56:49.167Z,100683.52
2018-08-31T12:59:17.715Z,100682.62
2018-08-31T13:01:46.172Z,100694.19
2018-08-31T13:04:14.654Z,100686.50
2018-08-31T13:06:43.223Z,100688.02
2018-08-31T13:09:11.693Z,100685.29
2018-08-31T13:11:40.095Z,100692.45
2018-08-31T13:14:08.539Z,100685.11
2018-08-31T13:16:36.971Z,100684.80
2018-08-31T13:19:05.739Z,100680.36
2018-08-31T13:21:34.530Z,100674.33
2018-08-31T13:24:05.831Z,100667.48
2018-08-31T13:26:34.335Z,100675.14
2018-08-31T13:29:02.782Z,100668.84
2018-08-31T13:31:31.450Z,100660.83
2018-08-31T13:34:00.339Z,100659.55
2018-08-31T13:36:28.760Z,100662.42
2018-08-31T13:38:57.234Z,100664.70
2018-08-31T13:41:25.734Z,100665.03
2018-08-31T13:43:54.287Z,100660.45
2018-08-31T13:46:22.734Z,100661.72
2018-08-31T13:48:51.653Z,100658.60
2018-08-31T13:51:20.233Z,100672.44
2018-08-31T13:53:48.717Z,100670.36
2018-08-31T13:56:17.323Z,100672.58
2018-08-31T13:58:52.044Z,100671.48
2018-08-31T14:01:20.643Z,100672.31
2018-08-31T14:03:51.032Z,100674.03
2018-08-31T14:06:22.722Z,100675.92
2018-08-31T14:08:51.228Z,100670.71
2018-08-31T14:11:20.019Z,100667.70
2018-08-31T14:13:48.827Z,100669.50
2018-08-31T14:16:17.362Z,100672.70
2018-08-31T14:18:46.011Z,100668.59
2018-08-31T14:21:14.651Z,100670.73
2018-08-31T14:23:43.303Z,100672.75
2018-08-31T14:26:11.834Z,100676.00
2018-08-31T14:28:40.310Z,100678.28
2018-08-31T14:31:08.767Z,100676.54
2018-08-31T14:33:37.220Z,100668.06
2018-08-31T14:36:06.044Z,100667.36
2018-08-31T14:38:34.455Z,100663.56
2018-08-31T14:41:02.854Z,100665.73
2018-08-31T14:43:31.470Z,100663.02
2018-08-31T14:45:59.902Z,100664.14
2018-08-31T14:48:28.396Z,100656.66
2018-08-31T14:50:57.266Z,100657.85
2018-08-31T14:53:25.683Z,100649.75
2018-08-31T14:55:54.211Z,100650.66
2018-08-31T14:58:23.001Z,100644.33
2018-08-31T15:00:51.471Z,100643.81
2018-08-31T15:03:19.866Z,100644.92
2018-08-31T15:05:48.513Z,100635.75
2018-08-31T15:08:17.003Z,100639.91
2018-08-31T15:10:45.571Z,100643.59
2018-08-31T15:13:14.063Z,100642.83
2018-08-31T15:15:42.501Z,100643.84
2018-08-31T15:18:11.050Z,100651.12
2018-08-31T15:20:39.827Z,100649.43
2018-08-31T15:23:08.391Z,100649.59
2018-08-31T15:25:36.998Z,100648.64
2018-08-31T15:28:05.560Z,100653.22
2018-08-31T15:30:33.999Z,100652.53
2018-08-31T15:33:02.418Z,100648.66
2018-08-31T15:35:31.130Z,100654.70
2018-08-31T15:37:59.579Z,100645.89
2018-08-31T15:40:28.222Z,100641.70
2018-08-31T15:42:56.958Z,100645.95
2018-08-31T15:45:25.671Z,100639.76
2018-08-31T15:47:54.120Z,100641.73
2018-08-31T15:50:22.764Z,100638.11
2018-08-31T15:52:51.282Z,100644.19
2018-08-31T15:55:19.765Z,100649.88
2018-08-31T15:57:48.192Z,100646.61
2018-08-31T16:00:16.679Z,100654.31
2018-08-31T16:02:45.151Z,100649.69
2018-08-31T16:05:13.606Z,100650.98
2018-08-31T16:07:42.131Z,100657.69
2018-08-31T16:10:10.675Z,100648.80
2018-08-31T16:12:39.404Z,100651.86
2018-08-31T16:15:07.955Z,100649.09
2018-08-31T16:17:36.481Z,100645.86
2018-08-31T16:20:05.510Z,100648.33
2018-08-31T16:22:34.019Z,100645.77
2018-08-31T16:25:02.577Z,100646.16
2018-08-31T16:27:31.267Z,100653.45
2018-08-31T16:29:59.684Z,100655.22
2018-08-31T16:32:28.323Z,100657.87
2018-08-31T16:34:56.802Z,100658.61
2018-08-31T16:37:25.310Z,100652.16
2018-08-31T16:39:53.786Z,100647.13
2018-08-31T16:42:22.660Z,100654.97
2018-08-31T16:44:51.187Z,100657.17
2018-08-31T16:47:19.690Z,100654.30
2018-08-31T16:49:48.242Z,100661.72
2018-08-31T16:52:16.791Z,100669.45
2018-08-31T16:54:45.303Z,100659.19
2018-08-31T16:57:13.926Z,100665.34
2018-08-31T16:59:42.477Z,100667.56
2018-08-31T17:02:10.935Z,100664.22
2018-08-31T17:04:39.619Z,100675.09
2018-08-31T17:07:08.046Z,100673.81
2018-08-31T17:09:36.559Z,100672.61
2018-08-31T17:12:05.517Z,100676.25
2018-08-31T17:14:34.023Z,100673.73
2018-08-31T17:17:03.281Z,100680.02
2018-08-31T17:19:31.582Z,100680.51
2018-08-31T17:22:00.028Z,100678.58
2018-08-31T17:24:30.079Z,100682.05
2018-08-31T17:27:07.352Z,100680.80
2018-08-31T17:29:41.743Z,100678.38
2018-08-31T17:32:15.808Z,100681.11
2018-08-31T17:34:49.459Z,100680.64
2018-08-31T17:37:23.351Z,100680.95
2018-08-31T17:39:51.928Z,100686.44
2018-08-31T17:42:20.490Z,100689.34
2018-08-31T17:44:49.223Z,100693.49
2018-08-31T17:47:17.883Z,100693.63
2018-08-31T17:49:46.476Z,100695.88
2018-08-31T17:52:15.021Z,100698.31
2018-08-31T17:54:43.477Z,100698.56
2018-08-31T17:57:12.077Z,100711.66
2018-08-31T17:59:40.944Z,100711.89
2018-08-31T18:02:09.939Z,100710.02
2018-08-31T18:04:38.456Z,100714.99
2018-08-31T18:07:06.999Z,100715.98
2018-08-31T18:09:35.497Z,100719.79
2018-08-31T18:12:03.938Z,100723.20
2018-08-31T18:14:32.399Z,100728.58
2018-08-31T18:17:01.131Z,100727.97
2018-08-31T18:19:29.595Z,100728.79
2018-08-31T18:21:58.118Z,100732.23
2018-08-31T18:24:26.655Z,100735.08
2018-08-31T18:26:55.222Z,100738.12
2018-08-31T18:29:23.794Z,100737.58
2018-08-31T18:31:52.194Z,100742.59
2018-08-31T18:34:20.701Z,100737.95
2018-08-31T18:36:49.248Z,100742.82
2018-08-31T18:39:17.682Z,100750.03
2018-08-31T18:41:46.199Z,100747.42
2018-08-31T18:44:15.079Z,100754.71
2018-08-31T18:46:43.620Z,100754.11
2018-08-31T18:49:12.137Z,100758.92
2018-08-31T18:51:40.789Z,100763.53
2018-08-31T18:54:09.318Z,100769.39
2018-08-31T18:56:37.832Z,100776.20
2018-08-31T18:59:06.498Z,100772.82
2018-08-31T19:01:35.085Z,100778.03
2018-08-31T19:04:03.706Z,100779.16
2018-08-31T19:06:32.435Z,100781.50
2018-08-31T19:09:00.982Z,100781.71
2018-08-31T19:11:29.533Z,100791.19
2018-08-31T19:13:58.183Z,100791.13
2018-08-31T19:16:26.774Z,100793.95
2018-08-31T19:18:55.372Z,100802.44
2018-08-31T19:21:24.072Z,100802.33
2018-08-31T19:23:52.597Z,100800.63
2018-08-31T19:26:21.216Z,100797.58
2018-08-31T19:28:49.984Z,100805.96
2018-08-31T19:31:18.935Z,100800.54
2018-08-31T19:33:47.539Z,100807.34
2018-08-31T19:36:16.352Z,100805.19
2018-08-31T19:38:45.150Z,100814.25
2018-08-31T19:41:13.739Z,100816.81
2018-08-31T19:43:43.159Z,100817.95
2018-08-31T19:46:11.894Z,100816.13
2018-08-31T19:48:40.318Z,100818.18
2018-08-31T19:51:08.975Z,100822.14
2018-08-31T19:53:37.653Z,100820.64
2018-08-31T19:56:06.344Z,100824.14
2018-08-31T19:58:34.976Z,100825.29
2018-08-31T20:01:03.534Z,100824.81
2018-08-31T20:03:32.091Z,100822.92
2018-08-31T20:06:00.763Z,100830.78
2018-08-31T20:08:29.365Z,100834.39
2018-08-31T20:10:58.165Z,100831.57
2018-08-31T20:13:27.097Z,100837.87
2018-08-31T20:15:55.871Z,100837.25
2018-08-31T20:18:24.398Z,100840.67
2018-08-31T20:20:53.152Z,100842.17
2018-08-31T20:23:21.737Z,100838.28
2018-08-31T20:25:50.267Z,100839.55
2018-08-31T20:28:19.148Z,100846.56
2018-08-31T20:30:48.586Z,100846.86
2018-08-31T20:33:17.077Z,100849.83
2018-08-31T20:35:45.768Z,100844.61
2018-08-31T20:38:14.236Z,100843.98
2018-08-31T20:40:42.990Z,100845.86
2018-08-31T20:43:12.094Z,100851.31
2018-08-31T20:45:40.915Z,100849.83
2018-08-31T20:48:09.519Z,100848.20
2018-08-31T20:50:38.243Z,100854.40
2018-08-31T20:53:06.799Z,100851.03
2018-08-31T20:55:35.496Z,100852.26
2018-08-31T20:58:04.232Z,100855.84
2018-08-31T21:00:32.939Z,100858.50
2018-08-31T21:03:01.563Z,100862.46
2018-08-31T21:05:37.023Z,100861.73
2018-08-31T21:08:05.715Z,100864.37
2018-08-31T21:10:34.338Z,100863.17
2018-08-31T21:13:03.398Z,100866.27
2018-08-31T21:15:31.894Z,100869.48
2018-08-31T21:18:00.431Z,100868.62
2018-08-31T21:20:29.068Z,100876.06
2018-08-31T21:22:57.614Z,100877.73
2018-08-31T21:25:26.008Z,100875.64
2018-08-31T21:27:54.658Z,100871.95
2018-08-31T21:30:23.102Z,100874.02
2018-08-31T21:32:51.576Z,100871.48
2018-08-31T21:35:20.400Z,100872.75
2018-08-31T21:37:48.899Z,100877.06
2018-08-31T21:40:17.302Z,100874.25
2018-08-31T21:42:46.038Z,100877.80
2018-08-31T21:45:14.492Z,100878.19
2018-08-31T21:47:42.932Z,100879.44
2018-08-31T21:50:11.478Z,100878.50
2018-08-31T21:52:39.902Z,100880.27
2018-08-31T21:55:08.495Z,100883.26
2018-08-31T21:57:37.102Z,100883.41
2018-08-31T22:00:08.942Z,100880.19
2018-08-31T22:02:37.529Z,100881.40
2018-08-31T22:05:06.111Z,100881.88
2018-08-31T22:07:34.621Z,100888.13
2018-08-31T22:10:03.406Z,100889.33
2018-08-31T22:12:32.018Z,100884.39
2018-08-31T22:15:00.527Z,100887.94
2018-08-31T22:17:29.146Z,100895.27
2018-08-31T22:19:57.671Z,100894.97
2018-08-31T22:22:26.162Z,100902.23
2018-08-31T22:24:54.838Z,100897.12
2018-08-31T22:27:23.499Z,100900.15
2018-08-31T22:29:51.966Z,100894.28
2018-08-31T22:32:20.739Z,100897.53
2018-08-31T22:34:49.200Z,100890.11
2018-08-31T22:37:17.670Z,100887.32
2018-08-31T22:39:46.175Z,100886.94
2018-08-31T22:42:14.755Z,100894.70
2018-08-31T22:44:43.256Z,100897.34
2018-08-31T22:47:12.007Z,100896.34
2018-08-31T22:49:40.411Z,100892.88
2018-08-31T22:52:08.804Z,100896.08
2018-08-31T22:54:37.494Z,100891.77
2018-08-31T22:57:05.930Z,100893.95
2018-08-31T22:59:34.346Z,100896.88
2018-08-31T23:02:02.751Z,100895.62
2018-08-31T23:04:31.186Z,100889.23
2018-08-31T23:06:59.686Z,100899.83
2018-08-31T23:09:28.344Z,100896.33
2018-08-31T23:11:56.802Z,100888.68
2018-08-31T23:14:25.283Z,100896.64
2018-08-31T23:16:53.822Z,100899.41
2018-08-31T23:19:22.358Z,100892.03
2018-08-31T23:21:50.831Z,100898.86
2018-08-31T23:24:19.563Z,100894.79
2018-08-31T23:26:47.957Z,100893.75
2018-08-31T23:29:16.378Z,100894.83
2018-08-31T23:31:44.991Z,100899.10
2018-08-31T23:34:13.506Z,100893.98
2018-08-31T23:36:42.005Z,100900.16
2018-08-31T23:39:10.778Z,100895.01
2018-08-31T23:41:39.294Z,100896.14
2018-08-31T23:44:07.830Z,100898.73
2018-08-31T23:46:36.367Z,100897.73
2018-08-31T23:49:04.887Z,100901.30
2018-08-31T23:51:33.362Z,100903.06
2018-08-31T23:54:01.836Z,100901.77
2018-08-31T23:56:31.059Z,100902.84
2018-08-31T23:58:59.499Z,100904.03
